Time;durP1;ratioP1;P1;durP2;ratioP2;P2;SDS_P1;SDS_P2;PMS_P1;PMS_P2;Temp;Humidity;BMP_temperature;BMP_pressure;BME280_temperature;BME280_humidity;BME280_pressure;Samples;Min_cycle;Max_cycle;Signal;HPM_P1;HPM_P2
2021/08/25 00:01:56;;;;;;;;;;;;;;;24.82;44.80;102787.75;4995112;28;19918;-84
2021/08/25 00:04:22;;;;;;;;;;;;;;;24.82;44.79;102786.84;4994688;28;19925;-84
2021/08/25 00:06:47;;;;;;;;;;;;;;;24.70;44.86;102778.53;4996383;28;19970;-84
2021/08/25 00:09:12;;;;;;;;;;;;;;;24.77;44.71;102782.59;4995508;28;19914;-84
2021/08/25 00:11:37;;;;;;;;;;;;;;;24.69;44.76;102781.41;4995634;28;19918;-84
2021/08/25 00:14:03;;;;;;;;;;;;;;;24.84;44.73;102784.88;4994470;28;19917;-84
2021/08/25 00:16:28;;;;;;;;;;;;;;;24.78;44.65;102786.22;4994098;28;20390;-84
2021/08/25 00:18:53;;;;;;;;;;;;;;;24.44;45.53;102787.91;4993551;28;19940;-84
2021/08/25 00:21:18;;;;;;;;;;;;;;;24.46;45.54;102777.59;4995900;28;19966;-84
2021/08/25 00:23:43;;;;;;;;;;;;;;;24.40;45.54;102781.72;4994541;28;19925;-84
2021/08/25 00:26:09;;;;;;;;;;;;;;;24.52;45.03;102775.25;4994892;28;19970;-84
2021/08/25 00:28:35;;;;;;;;;;;;;;;24.58;44.51;102779.47;4994222;28;20012;-84
2021/08/25 00:31:00;;;;;;;;;;;;;;;24.54;45.09;102775.13;4995818;28;19918;-84
2021/08/25 00:33:25;;;;;;;;;;;;;;;24.17;46.14;102769.63;4994514;28;19917;-84
2021/08/25 00:35:50;;;;;;;;;;;;;;;24.75;44.55;102764.31;4994672;28;20328;-84
2021/08/25 00:38:15;;;;;;;;;;;;;;;24.67;44.62;102758.47;4995993;28;19928;-84
2021/08/25 00:40:43;;;;;;;;;;;;;;;24.51;44.92;102764.31;4995821;28;20557;-83
2021/08/25 00:43:09;;;;;;;;;;;;;;;24.34;45.08;102757.28;4993993;28;19918;-84
2021/08/25 00:45:38;;;;;;;;;;;;;;;24.63;44.67;102755.06;4995727;28;19925;-83
2021/08/25 00:48:07;;;;;;;;;;;;;;;24.44;45.17;102763.00;4995457;28;19918;-84
2021/08/25 00:50:33;;;;;;;;;;;;;;;24.25;45.20;102756.09;4995314;28;19918;-84
2021/08/25 00:52:58;;;;;;;;;;;;;;;24.47;44.83;102746.16;4996079;28;20310;-84
2021/08/25 00:55:23;;;;;;;;;;;;;;;24.46;45.04;102750.81;4996506;28;19956;-84
2021/08/25 00:57:48;;;;;;;;;;;;;;;24.37;44.94;102749.63;4994904;28;19925;-84
2021/08/25 01:00:14;;;;;;;;;;;;;;;24.41;44.59;102747.50;4992530;28;19968;-84
2021/08/25 01:02:57;;;;;;;;;;;;;;;24.42;45.04;102746.50;4993327;28;19964;-85
2021/08/25 01:05:23;;;;;;;;;;;;;;;24.57;44.25;102739.78;4993506;28;19918;-84
2021/08/25 01:07:48;;;;;;;;;;;;;;;24.46;44.92;102741.63;4993784;28;20013;-84
2021/08/25 01:10:20;;;;;;;;;;;;;;;24.29;45.22;102738.28;4993260;28;19917;-84
2021/08/25 01:12:45;;;;;;;;;;;;;;;24.08;45.45;102749.09;4995021;28;20003;-84
2021/08/25 01:15:11;;;;;;;;;;;;;;;23.95;45.46;102749.09;4992992;28;19934;-84
2021/08/25 01:17:37;;;;;;;;;;;;;;;24.27;44.83;102745.78;4993195;28;19918;-84
2021/08/25 01:20:04;;;;;;;;;;;;;;;24.19;45.08;102745.50;4993148;28;19918;-84
2021/08/25 01:22:29;;;;;;;;;;;;;;;24.04;45.79;102750.31;4993119;28;19914;-84
2021/08/25 01:24:55;;;;;;;;;;;;;;;23.80;46.42;102747.47;4993385;28;20309;-84
2021/08/25 01:27:22;;;;;;;;;;;;;;;24.03;45.97;102749.41;4994002;28;19914;-84
2021/08/25 01:29:48;;;;;;;;;;;;;;;23.81;46.46;102743.69;4994947;28;19963;-84
2021/08/25 01:32:13;;;;;;;;;;;;;;;23.50;47.26;102740.41;4994290;28;19918;-84
2021/08/25 01:34:48;;;;;;;;;;;;;;;23.56;47.26;102747.38;4994242;28;20425;-84
2021/08/25 01:37:13;;;;;;;;;;;;;;;23.28;48.16;102741.06;4994782;28;19918;-84
2021/08/25 01:39:38;;;;;;;;;;;;;;;23.32;47.56;102743.50;4994645;28;19972;-84
2021/08/25 01:42:03;;;;;;;;;;;;;;;23.38;47.47;102733.03;4994394;28;19922;-84
2021/08/25 01:44:29;;;;;;;;;;;;;;;23.63;47.00;102741.28;4991905;28;19918;-84
2021/08/25 01:46:54;;;;;;;;;;;;;;;23.71;45.92;102725.03;4993214;28;19922;-85
2021/08/25 01:49:19;;;;;;;;;;;;;;;23.71;46.38;102740.72;4992827;28;20419;-84
2021/08/25 01:51:44;;;;;;;;;;;;;;;23.80;46.57;102728.13;4993783;28;19928;-84
2021/08/25 01:54:16;;;;;;;;;;;;;;;23.66;46.22;102732.78;4993213;28;20028;-84
2021/08/25 01:56:41;;;;;;;;;;;;;;;23.81;46.28;102729.84;4992666;28;19925;-84
2021/08/25 01:59:07;;;;;;;;;;;;;;;23.65;46.34;102731.00;4992363;28;19918;-85
2021/08/25 02:01:32;;;;;;;;;;;;;;;23.91;45.74;102714.38;4992830;28;19918;-85
2021/08/25 02:03:58;;;;;;;;;;;;;;;23.92;45.48;102712.53;4992162;28;19918;-84
2021/08/25 02:06:24;;;;;;;;;;;;;;;23.74;45.81;102704.56;4993389;28;19925;-84
2021/08/25 02:08:49;;;;;;;;;;;;;;;23.64;46.35;102703.47;4994631;28;19958;-85
2021/08/25 02:11:14;;;;;;;;;;;;;;;23.75;45.58;102699.91;4993685;28;19922;-85
2021/08/25 02:13:39;;;;;;;;;;;;;;;23.73;45.65;102700.03;4994285;28;19918;-85
2021/08/25 02:16:05;;;;;;;;;;;;;;;23.80;45.49;102704.09;4993700;28;20341;-85
2021/08/25 02:18:30;;;;;;;;;;;;;;;23.77;45.87;102689.66;4993782;28;20375;-84
2021/08/25 02:20:55;;;;;;;;;;;;;;;23.65;46.02;102697.84;4993561;28;20306;-85
2021/08/25 02:23:20;;;;;;;;;;;;;;;23.67;45.76;102697.72;4992888;28;20012;-85
2021/08/25 02:25:46;;;;;;;;;;;;;;;23.76;45.57;102693.41;4994842;28;19922;-85
2021/08/25 02:28:11;;;;;;;;;;;;;;;23.59;45.81;102692.78;4996094;28;19918;-85
2021/08/25 02:30:37;;;;;;;;;;;;;;;23.63;45.88;102693.44;4997234;28;19914;-85
2021/08/25 02:33:03;;;;;;;;;;;;;;;23.54;46.31;102679.28;4996667;28;19962;-85
2021/08/25 02:35:28;;;;;;;;;;;;;;;23.48;46.97;102693.56;4995306;28;19951;-84
2021/08/25 02:37:54;;;;;;;;;;;;;;;23.52;46.54;102680.41;4997255;28;20008;-85
2021/08/25 02:40:19;;;;;;;;;;;;;;;23.53;46.46;102688.56;4996784;28;19921;-85
2021/08/25 02:42:44;;;;;;;;;;;;;;;23.44;46.63;102688.38;4997086;28;20306;-84
2021/08/25 02:45:10;;;;;;;;;;;;;;;23.36;46.73;102681.53;4996413;28;19969;-85
2021/08/25 02:47:35;;;;;;;;;;;;;;;23.33;46.93;102684.53;4997845;28;20028;-85
2021/08/25 02:50:01;;;;;;;;;;;;;;;23.48;46.37;102687.16;4996280;28;19918;-84
2021/08/25 02:52:26;;;;;;;;;;;;;;;23.29;46.59;102679.34;4996018;28;19961;-84
2021/08/25 02:54:51;;;;;;;;;;;;;;;23.52;45.87;102675.78;4995235;28;19953;-84
2021/08/25 02:57:16;;;;;;;;;;;;;;;23.26;46.40;102674.03;4996008;28;19953;-84
2021/08/25 02:59:41;;;;;;;;;;;;;;;23.19;46.54;102673.63;4997955;28;20370;-85
2021/08/25 03:02:07;;;;;;;;;;;;;;;23.49;45.59;102675.09;4996766;28;19913;-84
2021/08/25 03:04:32;;;;;;;;;;;;;;;23.39;46.06;102665.75;4996588;28;19918;-84
2021/08/25 03:06:57;;;;;;;;;;;;;;;23.35;46.16;102660.41;4995496;28;19956;-84
2021/08/25 03:09:22;;;;;;;;;;;;;;;23.18;46.40;102666.31;4995022;28;20012;-85
2021/08/25 03:11:49;;;;;;;;;;;;;;;23.24;46.05;102662.22;4995929;28;19944;-83
2021/08/25 03:14:14;;;;;;;;;;;;;;;23.08;46.44;102659.66;4996456;28;19981;-84
2021/08/25 03:16:39;;;;;;;;;;;;;;;23.07;46.34;102658.78;4996090;28;20346;-83
2021/08/25 03:19:04;;;;;;;;;;;;;;;22.66;47.52;102654.31;4995218;28;19922;-84
2021/08/25 03:21:30;;;;;;;;;;;;;;;22.40;48.24;102658.91;4995784;28;20417;-84
2021/08/25 03:23:55;;;;;;;;;;;;;;;22.45;48.23;102663.13;4996401;28;19921;-84
2021/08/25 03:26:20;;;;;;;;;;;;;;;22.68;47.68;102656.97;4995464;28;19979;-84
2021/08/25 03:28:45;;;;;;;;;;;;;;;22.67;47.67;102649.69;4996706;28;20367;-84
2021/08/25 03:31:11;;;;;;;;;;;;;;;23.02;46.63;102647.16;4996323;28;19918;-84
2021/08/25 03:33:36;;;;;;;;;;;;;;;23.13;46.60;102647.31;4997085;28;19917;-84
2021/08/25 03:36:01;;;;;;;;;;;;;;;22.84;47.35;102646.59;4994482;28;19949;-83
2021/08/25 03:38:26;;;;;;;;;;;;;;;22.96;47.58;102648.50;4994552;28;19925;-83
2021/08/25 03:40:52;;;;;;;;;;;;;;;22.44;49.02;102650.31;4995886;28;19924;-84
2021/08/25 03:43:17;;;;;;;;;;;;;;;22.39;49.10;102654.38;4997115;28;19925;-84
2021/08/25 03:45:42;;;;;;;;;;;;;;;22.55;48.61;102645.91;4995078;28;19969;-83
2021/08/25 03:48:07;;;;;;;;;;;;;;;22.57;48.39;102638.41;4995984;28;19953;-84
2021/08/25 03:50:32;;;;;;;;;;;;;;;22.78;47.55;102639.66;4996351;28;20000;-84
2021/08/25 03:52:58;;;;;;;;;;;;;;;22.78;47.43;102631.41;4994799;28;20339;-84
2021/08/25 03:55:23;;;;;;;;;;;;;;;22.75;47.17;102627.94;4994114;28;20387;-83
2021/08/25 03:57:48;;;;;;;;;;;;;;;22.93;47.45;102634.94;4994538;28;20016;-84
2021/08/25 04:00:14;;;;;;;;;;;;;;;23.07;46.98;102641.31;4994518;28;20329;-83
2021/08/25 04:02:39;;;;;;;;;;;;;;;22.95;47.34;102632.06;4994512;28;19925;-84
2021/08/25 04:05:05;;;;;;;;;;;;;;;22.78;47.16;102630.50;4994059;28;19944;-83
2021/08/25 04:07:30;;;;;;;;;;;;;;;22.42;48.04;102635.75;4993514;28;20365;-84
2021/08/25 04:09:55;;;;;;;;;;;;;;;23.06;46.54;102628.53;4994637;28;19952;-84
2021/08/25 04:12:20;;;;;;;;;;;;;;;23.03;46.84;102621.34;4995064;28;19917;-85
2021/08/25 04:14:46;;;;;;;;;;;;;;;22.33;48.31;102618.94;4995521;28;19926;-85
2021/08/25 04:17:11;;;;;;;;;;;;;;;22.57;48.16;102610.81;4996449;28;19918;-84
2021/08/25 04:19:36;;;;;;;;;;;;;;;22.96;46.89;102620.00;4995120;28;19922;-84
2021/08/25 04:22:02;;;;;;;;;;;;;;;22.81;47.35;102609.09;4994777;28;19964;-83
2021/08/25 04:24:27;;;;;;;;;;;;;;;22.86;47.57;102606.00;4994533;28;20351;-84
2021/08/25 04:26:52;;;;;;;;;;;;;;;23.03;47.01;102610.28;4996692;28;19953;-84
2021/08/25 04:29:19;;;;;;;;;;;;;;;22.89;47.56;102605.78;4994724;28;20279;-83
2021/08/25 04:31:44;;;;;;;;;;;;;;;23.27;46.55;102610.41;4995074;28;20436;-84
2021/08/25 04:34:09;;;;;;;;;;;;;;;22.81;48.08;102608.19;4994863;28;19918;-84
2021/08/25 04:36:35;;;;;;;;;;;;;;;22.80;48.39;102611.97;4993272;28;20413;-84
2021/08/25 04:39:00;;;;;;;;;;;;;;;22.98;47.85;102604.25;4994402;28;20337;-84
2021/08/25 04:41:26;;;;;;;;;;;;;;;23.32;47.05;102602.66;4994650;28;19944;-84
2021/08/25 04:43:51;;;;;;;;;;;;;;;22.97;47.99;102614.38;4994329;28;19924;-85
2021/08/25 04:46:16;;;;;;;;;;;;;;;23.24;47.78;102616.16;4994842;28;20298;-84
2021/08/25 04:48:41;;;;;;;;;;;;;;;23.26;47.70;102607.75;4994573;28;19918;-85
2021/08/25 04:51:07;;;;;;;;;;;;;;;23.63;46.96;102616.94;4995014;28;19918;-84
2021/08/25 04:53:32;;;;;;;;;;;;;;;23.62;47.28;102603.25;4995822;28;19918;-85
2021/08/25 04:55:57;;;;;;;;;;;;;;;23.34;47.77;102606.19;4995327;28;20271;-84
2021/08/25 04:58:22;;;;;;;;;;;;;;;23.56;47.81;102609.25;4996279;28;20283;-84
2021/08/25 05:00:48;;;;;;;;;;;;;;;23.69;47.52;102610.97;4995786;28;20535;-84
2021/08/25 05:03:14;;;;;;;;;;;;;;;23.93;46.78;102607.38;4995398;28;19918;-84
2021/08/25 05:05:39;;;;;;;;;;;;;;;23.48;47.72;102607.94;4994835;28;20323;-85
2021/08/25 05:08:05;;;;;;;;;;;;;;;23.82;47.39;102601.72;4995654;28;19918;-85
2021/08/25 05:10:30;;;;;;;;;;;;;;;23.79;47.70;102610.25;4994433;28;19918;-85
2021/08/25 05:12:55;;;;;;;;;;;;;;;23.86;47.54;102606.06;4994609;28;19922;-85
2021/08/25 05:15:20;;;;;;;;;;;;;;;23.96;47.52;102609.00;4994183;28;19933;-85
2021/08/25 05:17:46;;;;;;;;;;;;;;;23.76;48.33;102604.97;4994113;28;20386;-85
2021/08/25 05:20:14;;;;;;;;;;;;;;;23.68;48.69;102606.41;4994330;28;20427;-85
2021/08/25 05:22:39;;;;;;;;;;;;;;;23.66;48.78;102599.28;4995203;28;20016;-85
2021/08/25 05:25:05;;;;;;;;;;;;;;;23.47;48.69;102608.03;4995588;28;19994;-85
2021/08/25 05:27:30;;;;;;;;;;;;;;;23.93;48.16;102604.59;4995182;28;19981;-84
2021/08/25 05:29:55;;;;;;;;;;;;;;;24.03;47.94;102608.41;4996315;28;19918;-85
2021/08/25 05:32:20;;;;;;;;;;;;;;;23.44;49.76;102606.38;4995138;28;20016;-85
2021/08/25 05:34:46;;;;;;;;;;;;;;;23.96;48.40;102612.66;4995155;28;19957;-84
2021/08/25 05:37:11;;;;;;;;;;;;;;;24.13;48.16;102611.34;4994484;28;19924;-84
2021/08/25 05:39:36;;;;;;;;;;;;;;;23.89;48.84;102611.34;4995570;28;19940;-84
2021/08/25 05:42:01;;;;;;;;;;;;;;;24.21;48.32;102610.75;4995085;28;19968;-84
2021/08/25 05:44:27;;;;;;;;;;;;;;;24.28;48.17;102605.59;4993001;28;19933;-85
2021/08/25 05:46:52;;;;;;;;;;;;;;;24.15;48.39;102608.47;4991986;28;20366;-84
2021/08/25 05:49:17;;;;;;;;;;;;;;;24.44;47.81;102605.31;4994105;28;19922;-84
2021/08/25 05:51:42;;;;;;;;;;;;;;;24.38;47.78;102606.66;4995862;28;19925;-85
2021/08/25 05:54:09;;;;;;;;;;;;;;;24.47;48.17;102616.13;4993914;28;19924;-85
2021/08/25 05:56:34;;;;;;;;;;;;;;;23.86;49.75;102611.59;4993887;28;19918;-84
2021/08/25 05:58:59;;;;;;;;;;;;;;;24.15;48.57;102612.09;4992981;28;19925;-84
2021/08/25 06:01:25;;;;;;;;;;;;;;;24.46;48.61;102606.03;4994266;28;20367;-84
2021/08/25 06:03:50;;;;;;;;;;;;;;;24.47;48.87;102605.06;4993407;28;19944;-84
2021/08/25 06:06:16;;;;;;;;;;;;;;;24.81;47.95;102611.59;4996449;28;19997;-85
2021/08/25 06:08:41;;;;;;;;;;;;;;;24.76;48.49;102611.09;4994208;28;19932;-84
2021/08/25 06:11:06;;;;;;;;;;;;;;;24.78;48.46;102611.84;4994634;28;19922;-85
2021/08/25 06:13:32;;;;;;;;;;;;;;;24.82;48.23;102609.69;4993154;28;19918;-84
2021/08/25 06:15:57;;;;;;;;;;;;;;;24.85;48.31;102609.44;4995289;28;19991;-84
2021/08/25 06:18:22;;;;;;;;;;;;;;;25.02;48.15;102608.97;4993416;28;19932;-83
2021/08/25 06:20:48;;;;;;;;;;;;;;;24.21;50.44;102605.22;4993289;28;19918;-84
2021/08/25 06:23:13;;;;;;;;;;;;;;;25.01;48.89;102604.41;4993988;28;19917;-84
2021/08/25 06:25:39;;;;;;;;;;;;;;;24.76;49.36;102605.56;4993972;28;20004;-84
2021/08/25 06:28:05;;;;;;;;;;;;;;;24.21;50.63;102605.22;4993931;28;19918;-84
2021/08/25 06:30:30;;;;;;;;;;;;;;;25.32;47.82;102609.34;4992234;28;19918;-85
2021/08/25 06:32:55;;;;;;;;;;;;;;;24.98;49.19;102607.44;4993746;28;20004;-85
2021/08/25 06:35:21;;;;;;;;;;;;;;;25.24;48.46;102609.97;4995893;28;19933;-85
2021/08/25 06:37:47;;;;;;;;;;;;;;;24.98;48.75;102612.97;4994112;28;20039;-84
2021/08/25 06:40:12;;;;;;;;;;;;;;;25.20;48.29;102617.66;4993421;28;19918;-84
2021/08/25 06:42:38;;;;;;;;;;;;;;;25.03;48.70;102623.69;4993017;28;20008;-84
2021/08/25 06:45:04;;;;;;;;;;;;;;;25.20;47.65;102617.66;4991420;28;19965;-84
2021/08/25 06:47:29;;;;;;;;;;;;;;;25.17;48.38;102619.78;4993032;28;20005;-85
2021/08/25 06:49:54;;;;;;;;;;;;;;;25.25;48.25;102622.81;4993561;28;20011;-83
2021/08/25 06:52:19;;;;;;;;;;;;;;;25.31;48.54;102627.00;4993009;28;19917;-85
2021/08/25 06:54:45;;;;;;;;;;;;;;;25.38;48.21;102628.25;4992793;28;20436;-86
2021/08/25 06:57:10;;;;;;;;;;;;;;;25.24;48.37;102621.03;4991964;28;20405;-85
2021/08/25 06:59:35;;;;;;;;;;;;;;;24.28;50.45;102623.09;4993693;28;20378;-83
2021/08/25 07:02:00;;;;;;;;;;;;;;;25.50;48.11;102627.25;4991412;28;20386;-84
2021/08/25 07:04:25;;;;;;;;;;;;;;;26.31;46.17;102638.00;4991557;28;19917;-84
2021/08/25 07:06:51;;;;;;;;;;;;;;;25.42;48.60;102625.09;4991757;28;19913;-83
2021/08/25 07:09:16;;;;;;;;;;;;;;;26.35;46.31;102620.06;4993313;28;19918;-84
2021/08/25 07:11:41;;;;;;;;;;;;;;;26.44;45.29;102627.59;4993577;28;19918;-84
2021/08/25 07:14:06;;;;;;;;;;;;;;;26.13;45.74;102619.19;4996208;28;19918;-84
2021/08/25 07:16:33;;;;;;;;;;;;;;;26.09;46.21;102617.66;4997545;28;19917;-84
2021/08/25 07:18:59;;;;;;;;;;;;;;;25.41;48.10;102617.81;4995917;28;20374;-85
2021/08/25 07:21:24;;;;;;;;;;;;;;;25.69;47.89;102625.69;4995276;28;19918;-85
2021/08/25 07:23:50;;;;;;;;;;;;;;;26.37;46.42;102614.41;4995651;28;19918;-84
2021/08/25 07:26:16;;;;;;;;;;;;;;;25.68;48.07;102619.28;4995484;28;20294;-85
2021/08/25 07:28:43;;;;;;;;;;;;;;;26.13;45.89;102621.94;4994827;28;19918;-84
2021/08/25 07:31:09;;;;;;;;;;;;;;;26.73;44.63;102617.75;4994626;28;20383;-84
2021/08/25 07:33:34;;;;;;;;;;;;;;;26.94;45.07;102623.28;4995139;28;19953;-84
2021/08/25 07:35:59;;;;;;;;;;;;;;;27.32;43.48;102616.16;4994358;28;19922;-83
2021/08/25 07:38:25;;;;;;;;;;;;;;;26.93;44.07;102627.94;4995401;28;20024;-84
2021/08/25 07:40:50;;;;;;;;;;;;;;;27.72;43.44;102618.94;4995270;28;19971;-84
2021/08/25 07:43:15;;;;;;;;;;;;;;;28.05;41.85;102604.78;4996560;28;19933;-84
2021/08/25 07:45:40;;;;;;;;;;;;;;;28.39;42.56;102608.00;4997539;28;19976;-84
2021/08/25 07:48:06;;;;;;;;;;;;;;;28.00;42.76;102607.16;4997359;28;19985;-84
2021/08/25 07:50:32;;;;;;;;;;;;;;;26.61;46.53;102611.34;4996321;28;19918;-84
2021/08/25 07:52:57;;;;;;;;;;;;;;;27.08;44.48;102614.56;4994582;28;20286;-84
2021/08/25 07:55:22;;;;;;;;;;;;;;;26.90;44.55;102606.00;4996040;28;19922;-84
2021/08/25 07:57:47;;;;;;;;;;;;;;;26.39;45.98;102613.25;4995692;28;20294;-84
2021/08/25 08:00:13;;;;;;;;;;;;;;;27.19;44.03;102603.38;4995229;28;20348;-84
2021/08/25 08:02:38;;;;;;;;;;;;;;;26.67;44.76;102602.50;4996145;28;19918;-85
2021/08/25 08:05:04;;;;;;;;;;;;;;;26.87;44.86;102606.28;4994256;28;20318;-84
2021/08/25 08:07:29;;;;;;;;;;;;;;;26.45;45.97;102618.28;4996848;28;20283;-84
2021/08/25 08:09:54;;;;;;;;;;;;;;;26.79;44.72;102606.97;4995681;28;19960;-85
2021/08/25 08:12:19;;;;;;;;;;;;;;;26.45;45.17;102612.72;4994232;28;19918;-85
2021/08/25 08:14:45;;;;;;;;;;;;;;;27.70;42.46;102604.28;4994165;28;19988;-85
2021/08/25 08:17:10;;;;;;;;;;;;;;;27.58;42.48;102606.31;4996936;28;19922;-85
2021/08/25 08:19:35;;;;;;;;;;;;;;;26.64;44.23;102605.53;4995338;28;19921;-84
2021/08/25 08:22:02;;;;;;;;;;;;;;;26.12;46.01;102611.84;4995509;28;19981;-85
2021/08/25 08:24:28;;;;;;;;;;;;;;;28.32;40.46;102597.63;4995916;28;19971;-85
2021/08/25 08:26:53;;;;;;;;;;;;;;;27.74;41.21;102600.19;4994674;28;19948;-85
2021/08/25 08:29:18;;;;;;;;;;;;;;;28.49;40.06;102594.09;4995319;28;19963;-85
2021/08/25 08:31:43;;;;;;;;;;;;;;;29.20;38.41;102591.84;4996304;28;20371;-84
2021/08/25 08:34:09;;;;;;;;;;;;;;;27.78;41.46;102595.25;4994069;28;19918;-85
2021/08/25 08:36:34;;;;;;;;;;;;;;;28.76;38.81;102590.56;4994844;28;19937;-85
2021/08/25 08:39:00;;;;;;;;;;;;;;;28.93;38.68;102594.44;4996072;28;19918;-84
2021/08/25 08:41:25;;;;;;;;;;;;;;;28.10;39.50;102583.00;4994778;28;19918;-85
2021/08/25 08:43:51;;;;;;;;;;;;;;;29.05;38.10;102589.56;4995110;28;20342;-84
2021/08/25 08:46:17;;;;;;;;;;;;;;;28.51;38.33;102586.47;4995917;28;19926;-84
2021/08/25 08:48:42;;;;;;;;;;;;;;;29.07;37.45;102583.84;4994829;28;19913;-84
2021/08/25 08:51:12;;;;;;;;;;;;;;;29.54;37.29;102583.78;4995450;28;19918;-84
2021/08/25 08:53:37;;;;;;;;;;;;;;;28.43;38.68;102572.44;4994312;28;20275;-84
2021/08/25 08:56:03;;;;;;;;;;;;;;;28.40;39.00;102567.13;4994657;28;20012;-84
2021/08/25 08:58:28;;;;;;;;;;;;;;;28.04;38.98;102572.47;4994764;28;20009;-84
2021/08/25 09:00:53;;;;;;;;;;;;;;;28.13;37.85;102574.34;4996783;28;20302;-84
2021/08/25 09:03:22;;;;;;;;;;;;;;;27.81;39.46;102564.34;4996008;28;20363;-83
2021/08/25 09:05:52;;;;;;;;;;;;;;;27.72;39.66;102568.88;4993618;28;20306;-83
2021/08/25 09:08:21;;;;;;;;;;;;;;;28.84;37.44;102561.03;4994960;28;20379;-84
2021/08/25 09:10:46;;;;;;;;;;;;;;;28.29;37.88;102563.50;4994655;28;20059;-84
2021/08/25 09:13:12;;;;;;;;;;;;;;;28.55;36.75;102556.41;4992844;28;19953;-84
2021/08/25 09:15:40;;;;;;;;;;;;;;;28.68;36.59;102554.22;4994777;28;19979;-84
2021/08/25 09:18:06;;;;;;;;;;;;;;;29.29;36.38;102552.81;4995542;28;19961;-84
2021/08/25 09:20:33;;;;;;;;;;;;;;;29.43;35.41;102547.75;4993957;28;19918;-84
2021/08/25 09:23:05;;;;;;;;;;;;;;;29.79;35.08;102551.44;4993895;28;19949;-84
2021/08/25 09:25:31;;;;;;;;;;;;;;;29.77;34.39;102547.06;4993714;28;19970;-85
2021/08/25 09:27:57;;;;;;;;;;;;;;;30.08;34.23;102543.91;4994878;28;19945;-85
2021/08/25 09:30:22;;;;;;;;;;;;;;;28.39;36.77;102552.34;4993853;28;20016;-84
2021/08/25 09:32:47;;;;;;;;;;;;;;;28.99;36.02;102545.59;4995065;28;20260;-84
2021/08/25 09:35:12;;;;;;;;;;;;;;;29.76;34.04;102548.97;4991927;28;20336;-85
2021/08/25 09:37:37;;;;;;;;;;;;;;;29.45;34.55;102551.25;4993072;28;20431;-84
2021/08/25 09:40:12;;;;;;;;;;;;;;;29.57;34.61;102538.84;4994318;28;19924;-84
2021/08/25 09:42:42;;;;;;;;;;;;;;;29.24;34.87;102537.59;4993926;28;19913;-84
2021/08/25 09:45:09;;;;;;;;;;;;;;;29.33;34.46;102542.22;4992282;28;19926;-84
2021/08/25 09:47:51;;;;;;;;;;;;;;;29.84;34.31;102551.88;4992382;28;19988;-84
2021/08/25 09:50:18;;;;;;;;;;;;;;;30.57;32.90;102549.88;4994180;28;19922;-84
2021/08/25 09:52:44;;;;;;;;;;;;;;;30.99;32.35;102553.84;4992907;28;19921;-84
2021/08/25 09:55:10;;;;;;;;;;;;;;;30.20;34.68;102565.81;4993533;28;20016;-84
2021/08/25 09:57:39;;;;;;;;;;;;;;;29.63;35.32;102554.06;4994231;28;19964;-84
2021/08/25 10:00:05;;;;;;;;;;;;;;;29.54;35.38;102555.88;4993929;28;19917;-83
2021/08/25 10:02:30;;;;;;;;;;;;;;;29.63;35.41;102548.50;4993529;28;19917;-83
2021/08/25 10:04:56;;;;;;;;;;;;;;;29.52;35.29;102556.03;4994307;28;19917;-83
2021/08/25 10:07:21;;;;;;;;;;;;;;;29.21;34.69;102549.03;4994236;28;19977;-83
2021/08/25 10:09:46;;;;;;;;;;;;;;;30.19;33.86;102546.44;4993556;28;19961;-83
2021/08/25 10:12:12;;;;;;;;;;;;;;;30.46;32.87;102542.66;4994160;28;19924;-84
2021/08/25 10:14:38;;;;;;;;;;;;;;;30.95;31.92;102547.69;4995390;28;20386;-84
2021/08/25 10:17:03;;;;;;;;;;;;;;;29.89;32.75;102540.22;4996556;28;19944;-84
2021/08/25 10:19:30;;;;;;;;;;;;;;;29.97;32.61;102533.84;4994878;28;20424;-84
2021/08/25 10:21:59;;;;;;;;;;;;;;;31.28;30.44;102526.38;4992414;28;19929;-84
2021/08/25 10:24:24;;;;;;;;;;;;;;;30.00;33.45;102526.03;4992136;28;20017;-84
2021/08/25 10:26:59;;;;;;;;;;;;;;;31.19;31.19;102513.41;4994911;28;19941;-84
2021/08/25 10:29:28;;;;;;;;;;;;;;;30.27;32.52;102518.59;4993322;28;19914;-84
2021/08/25 10:31:53;;;;;;;;;;;;;;;29.76;33.18;102511.81;4993380;28;19922;-84
2021/08/25 10:34:22;;;;;;;;;;;;;;;29.22;34.52;102495.94;4992788;28;19929;-83
2021/08/25 10:36:47;;;;;;;;;;;;;;;29.59;34.00;102494.06;4992537;28;20409;-83
2021/08/25 10:39:31;;;;;;;;;;;;;;;30.52;31.34;102494.53;4993391;28;19918;-83
2021/08/25 10:42:00;;;;;;;;;;;;;;;31.35;29.41;102483.72;4994680;28;19939;-84
2021/08/25 10:44:38;;;;;;;;;;;;;;;31.57;29.33;102482.22;4993042;28;19924;-84
2021/08/25 10:47:07;;;;;;;;;;;;;;;31.67;28.78;102485.72;4995206;28;19918;-84
2021/08/25 10:49:33;;;;;;;;;;;;;;;31.07;29.70;102473.69;4996699;28;20377;-83
2021/08/25 10:52:14;;;;;;;;;;;;;;;31.32;29.65;102473.75;4997340;28;19985;-83
2021/08/25 10:54:46;;;;;;;;;;;;;;;31.62;29.83;102479.78;4997250;28;19967;-84
2021/08/25 10:57:13;;;;;;;;;;;;;;;31.79;29.71;102478.72;4998754;28;19929;-84
2021/08/25 10:59:38;;;;;;;;;;;;;;;32.47;27.96;102473.78;4998049;28;19918;-84
2021/08/25 11:02:04;;;;;;;;;;;;;;;32.36;28.77;102470.50;4997010;28;20013;-84
2021/08/25 11:04:29;;;;;;;;;;;;;;;31.85;30.11;102462.31;4979578;28;19929;-84
2021/08/25 11:06:56;;;;;;;;;;;;;;;30.21;31.54;102466.19;4996932;28;19965;-83
2021/08/25 11:09:30;;;;;;;;;;;;;;;30.43;31.53;102459.22;4996336;28;20387;-83
2021/08/25 11:11:59;;;;;;;;;;;;;;;30.55;31.38;102448.63;4997874;28;19922;-84
2021/08/25 11:14:24;;;;;;;;;;;;;;;30.65;31.36;102445.69;4997663;28;20334;-83
2021/08/25 11:16:50;;;;;;;;;;;;;;;30.86;30.64;102446.16;4996279;28;19963;-83
2021/08/25 11:19:19;;;;;;;;;;;;;;;30.57;31.63;102441.84;4994503;28;19919;-84
2021/08/25 11:21:44;;;;;;;;;;;;;;;29.87;33.11;102442.72;4995313;28;20197;-84
2021/08/25 11:24:10;;;;;;;;;;;;;;;30.08;32.84;102447.09;4995861;28;19921;-84
2021/08/25 11:26:35;;;;;;;;;;;;;;;30.04;32.80;102440.97;4995962;28;19935;-84
2021/08/25 11:29:00;;;;;;;;;;;;;;;28.69;34.14;102438.13;4994624;28;19918;-84
2021/08/25 11:31:26;;;;;;;;;;;;;;;28.95;33.64;102435.50;4995071;28;19922;-84
2021/08/25 11:33:52;;;;;;;;;;;;;;;30.02;32.48;102429.06;4994558;28;19918;-83
2021/08/25 11:36:17;;;;;;;;;;;;;;;29.49;33.21;102427.22;4994820;28;19921;-84
2021/08/25 11:38:43;;;;;;;;;;;;;;;30.89;31.27;102414.19;4995269;28;19918;-84
2021/08/25 11:41:08;;;;;;;;;;;;;;;30.83;30.63;102426.03;4995328;28;19922;-84
2021/08/25 11:43:36;;;;;;;;;;;;;;;31.88;29.31;102422.78;4995978;28;20080;-84
2021/08/25 11:46:02;;;;;;;;;;;;;;;28.86;33.70;102416.94;4996076;28;19926;-84
2021/08/25 11:48:28;;;;;;;;;;;;;;;29.95;32.10;102408.44;4994978;28;19914;-84
2021/08/25 11:50:54;;;;;;;;;;;;;;;28.43;35.29;102411.81;4995489;28;20417;-84
2021/08/25 11:53:21;;;;;;;;;;;;;;;29.01;34.18;102417.28;4997273;28;19933;-84
2021/08/25 11:55:47;;;;;;;;;;;;;;;29.37;33.78;102407.06;4994348;28;19918;-83
2021/08/25 11:58:24;;;;;;;;;;;;;;;29.30;34.37;102415.16;4992882;28;19922;-84
2021/08/25 12:00:51;;;;;;;;;;;;;;;29.35;34.32;102411.94;4994369;28;19979;-84
2021/08/25 12:03:16;;;;;;;;;;;;;;;29.05;34.28;102405.66;4995257;28;20016;-84
2021/08/25 12:05:52;;;;;;;;;;;;;;;29.30;34.75;102408.72;4997220;28;20358;-84
2021/08/25 12:08:17;;;;;;;;;;;;;;;28.90;34.94;102399.75;4995671;28;19918;-83
2021/08/25 12:10:45;;;;;;;;;;;;;;;28.82;34.89;102399.63;4995555;28;19970;-84
2021/08/25 12:13:30;;;;;;;;;;;;;;;29.50;34.13;102398.28;4996069;28;19921;-83
2021/08/25 12:15:56;;;;;;;;;;;;;;;28.74;35.18;102416.25;4995089;28;19929;-83
2021/08/25 12:18:22;;;;;;;;;;;;;;;28.13;36.41;102407.41;4994731;28;19918;-85
2021/08/25 12:20:49;;;;;;;;;;;;;;;28.33;35.45;102413.78;4995342;28;19913;-84
2021/08/25 12:23:15;;;;;;;;;;;;;;;29.48;33.64;102408.72;4994887;28;20399;-85
2021/08/25 12:25:48;;;;;;;;;;;;;;;29.75;33.05;102395.72;4995500;28;19940;-84
2021/08/25 12:28:32;;;;;;;;;;;;;;;28.29;34.26;102393.72;4994196;28;20017;-83
2021/08/25 12:31:16;;;;;;;;;;;;;;;29.30;33.65;102392.88;4994418;28;19925;-84